Time;durP1;ratioP1;P1;durP2;ratioP2;P2;SDS_P1;SDS_P2;PMS_P1;PMS_P2;Temp;Humidity;BMP_temperature;BMP_pressure;BME280_temperature;BME280_humidity;BME280_pressure;Samples;Min_cycle;Max_cycle;Signal;HPM_P1;HPM_P2
2022/03/29 04:14:44;;;;;;;26.92;15.02;;;;;;;6.50;74.89;99989.03;5573430;31;172192;-86
2022/03/29 04:17:47;;;;;;;32.13;14.85;;;;;;;6.53;74.23;99988.91;5558623;32;35019;-86
2022/03/29 04:20:50;;;;;;;28.35;15.05;;;;;;;6.58;74.40;99996.62;5552386;32;35291;-86
2022/03/29 04:23:53;;;;;;;29.65;15.57;;;;;;;6.49;74.79;99997.00;5548274;32;34639;-86
2022/03/29 04:26:55;;;;;;;26.73;16.02;;;;;;;6.47;75.18;99997.03;5548570;32;33609;-86
2022/03/29 04:29:58;;;;;;;27.17;14.85;;;;;;;6.49;74.92;99997.84;5548076;32;33477;-86
2022/03/29 04:33:01;;;;;;;26.92;15.63;;;;;;;6.54;74.58;99995.03;5551910;32;35654;-86
2022/03/29 04:36:04;;;;;;;34.17;15.93;;;;;;;6.53;nan;99988.91;5561666;32;35346;-86
2022/03/29 04:39:08;;;;;;;25.92;16.90;;;;;;;7.00;73.39;99981.78;5577912;32;35216;-86
2022/03/29 04:42:12;;;;;;;29.95;15.60;;;;;;;6.95;72.89;99981.97;5577166;32;34940;-86
2022/03/29 04:45:16;;;;;;;35.92;16.65;;;;;;;6.88;73.87;99976.09;5572428;32;33896;-86
2022/03/29 04:48:20;;;;;;;27.67;16.37;;;;;;;6.88;72.42;99981.38;5572793;32;35080;-86
2022/03/29 04:51:23;;;;;;;30.42;15.65;;;;;;;6.93;72.48;99975.91;5572705;32;34334;-86
2022/03/29 04:54:26;;;;;;;31.40;16.17;;;;;;;6.97;72.21;99974.88;5573394;32;33878;-86
2022/03/29 04:57:28;;;;;;;27.73;15.77;;;;;;;7.03;72.21;99972.91;5557698;32;34601;-89
2022/03/29 05:00:31;;;;;;;31.02;16.52;;;;;;;7.05;72.16;99974.56;5563222;32;34141;-90
2022/03/29 05:03:34;;;;;;;24.80;15.55;;;;;;;7.10;71.90;99972.56;5567848;32;34654;-89
2022/03/29 05:06:37;;;;;;;26.27;16.20;;;;;;;7.16;71.94;99976.75;5568888;32;33823;-90
2022/03/29 05:09:41;;;;;;;30.42;15.82;;;;;;;7.13;72.37;99976.84;5556111;32;33944;-86
2022/03/29 05:12:46;;;;;;;28.98;16.00;;;;;;;7.13;72.18;99975.09;5550708;32;34395;-86
2022/03/29 05:15:48;;;;;;;36.40;16.27;;;;;;;7.11;71.90;99971.66;5562179;32;34728;-86
2022/03/29 05:18:51;;;;;;;29.00;15.77;;;;;;;7.14;71.79;99973.28;5560402;31;34217;-86
2022/03/29 05:21:54;;;;;;;29.37;15.68;;;;;;;7.33;70.48;99977.81;5567827;32;33947;-86
2022/03/29 05:24:58;;;;;;;29.58;15.93;;;;;;;7.40;69.92;99971.34;5542483;32;33901;-87
2022/03/29 05:28:00;;;;;;;33.08;15.80;;;;;;;7.41;69.73;99973.06;5546793;32;33383;-87
2022/03/29 05:31:05;;;;;;;34.97;16.52;;;;;;;7.51;69.28;99970.87;5548332;32;34435;-87
2022/03/29 05:34:08;;;;;;;30.05;16.20;;;;;;;7.59;69.54;99971.37;5544195;32;34930;-88
2022/03/29 05:37:11;;;;;;;35.58;17.85;;;;;;;7.79;68.03;99975.78;5538634;32;34570;-88
2022/03/29 05:40:13;;;;;;;29.75;16.65;;;;;;;7.95;68.12;99977.75;5540257;32;33973;-88
2022/03/29 05:43:17;;;;;;;40.38;20.25;;;;;;;8.02;67.30;99970.41;5538836;32;35193;-88
2022/03/29 05:49:41;;;;;;;;;;;;;;;8.42;66.07;99971.19;5535496;32;34334;-86
2022/03/29 05:52:43;;;;;;;36.25;18.50;;;;;;;9.07;64.14;99966.38;5546139;32;34289;-88
2022/03/29 05:55:48;;;;;;;37.08;19.00;;;;;;;10.04;61.15;99968.44;5554947;32;33871;-87
2022/03/29 05:58:51;;;;;;;29.02;17.23;;;;;;;10.88;58.42;99969.16;5538622;32;33758;-87
2022/03/29 06:01:54;;;;;;;41.33;18.35;;;;;;;11.48;56.07;99971.88;5542357;32;33583;-89
2022/03/29 06:04:58;;;;;;;39.88;18.95;;;;;;;12.18;53.74;99969.47;5536448;32;34529;-89
2022/03/29 06:08:00;;;;;;;39.85;19.35;;;;;;;13.42;49.28;99963.22;5534670;32;32343;-89
2022/03/29 06:11:04;;;;;;;31.12;18.70;;;;;;;14.33;47.56;99961.34;5544969;32;34083;-88
2022/03/29 06:14:06;;;;;;;35.25;19.05;;;;;;;15.47;44.35;99953.88;5549104;32;33522;-89
2022/03/29 06:20:48;;;;;;;28.95;18.73;;;;;;;16.86;39.40;99950.97;2305983;29;20095;-87
2022/03/29 06:23:51;;;;;;;31.98;19.75;;;;;;;16.43;40.35;99944.62;5552589;32;34409;-88
2022/03/29 06:26:57;;;;;;;39.10;20.08;;;;;;;17.43;39.36;99952.53;5553263;32;33918;-86
2022/03/29 06:30:01;;;;;;;32.30;19.35;;;;;;;17.04;38.06;99953.13;5557522;32;34774;-88
2022/03/29 06:33:06;;;;;;;36.17;19.08;;;;;;;16.66;39.64;99958.84;5602996;26;34741;-87
2022/03/29 06:36:11;;;;;;;35.00;20.45;;;;;;;17.02;39.31;99949.66;5560809;32;35546;-87
2022/03/29 06:39:23;;;;;;;34.45;20.23;;;;;;;18.15;37.55;99944.59;5556549;32;35230;-89
2022/03/29 06:42:25;;;;;;;36.97;20.35;;;;;;;19.18;35.32;99935.38;5543038;32;34307;-88
2022/03/29 06:45:28;;;;;;;41.85;21.25;;;;;;;18.63;35.26;99937.63;5544633;32;36489;-88
2022/03/29 06:48:31;;;;;;;47.13;21.05;;;;;;;18.55;35.76;99929.41;5522801;32;33604;-87
2022/03/29 06:51:35;;;;;;;38.10;21.58;;;;;;;18.29;36.62;99938.84;5533870;32;34021;-84
2022/03/29 06:54:38;;;;;;;36.03;21.15;;;;;;;17.80;36.77;99929.75;5536345;32;34874;-84
2022/03/29 06:57:41;;;;;;;43.28;21.37;;;;;;;17.72;37.15;99923.22;5555425;32;35159;-84
2022/03/29 07:00:45;;;;;;;34.63;21.90;;;;;;;17.33;38.30;99931.87;5550971;32;34070;-83
2022/03/29 07:03:48;;;;;;;39.83;21.85;;;;;;;17.35;38.27;99935.28;5548371;32;34131;-83
2022/03/29 07:06:51;;;;;;;51.35;22.95;;;;;;;17.07;38.23;99932.28;5539553;32;34037;-82
2022/03/29 07:13:37;;;;;;;37.40;21.83;;;;;;;18.94;35.58;99925.87;5543059;32;34942;-81
2022/03/29 07:16:42;;;;;;;41.47;21.15;;;;;;;19.61;33.80;99927.81;5547557;32;34349;-82
2022/03/29 07:19:46;;;;;;;43.33;22.75;;;;;;;19.74;33.42;99927.47;5545574;32;33493;-86
2022/03/29 07:22:50;;;;;;;33.08;21.17;;;;;;;20.16;32.59;99924.34;5533689;32;35108;-86
2022/03/29 07:25:54;;;;;;;49.53;22.65;;;;;;;21.11;31.17;99915.00;5546025;32;34846;-85
2022/03/29 07:28:56;;;;;;;39.47;21.83;;;;;;;21.07;30.63;99919.00;5550754;32;34077;-85
2022/03/29 07:31:59;;;;;;;41.67;21.80;;;;;;;21.71;30.12;99917.94;5556606;32;34205;-86
2022/03/29 07:35:02;;;;;;;39.47;22.15;;;;;;;22.55;28.66;99914.56;5550480;32;34208;-87
2022/03/29 07:38:09;;;;;;;51.37;21.08;;;;;;;23.10;27.80;99908.69;5536566;32;34524;-87
2022/03/29 07:41:12;;;;;;;36.63;22.13;;;;;;;23.14;27.91;99913.56;5525647;32;33669;-87
2022/03/29 07:44:17;;;;;;;38.03;21.40;;;;;;;22.43;28.13;99907.75;5538184;32;34446;-87
2022/03/29 07:47:19;;;;;;;34.13;21.40;;;;;;;22.54;28.13;99898.50;5553898;32;34130;-86
2022/03/29 07:50:25;;;;;;;33.75;21.12;;;;;;;23.15;27.46;99900.91;5527949;32;32697;-86
2022/03/29 07:53:33;;;;;;;29.42;20.35;;;;;;;24.38;26.32;99897.16;5545490;32;34797;-81
2022/03/29 07:56:36;;;;;;;40.63;21.08;;;;;;;25.35;24.35;99901.16;5543297;32;34279;-84
2022/03/29 07:59:42;;;;;;;35.40;20.67;;;;;;;25.92;23.69;99895.28;5549068;32;34766;-82
2022/03/29 08:02:54;;;;;;;34.22;20.10;;;;;;;26.70;22.38;99900.13;5546543;32;33763;-85
2022/03/29 08:06:01;;;;;;;38.08;20.02;;;;;;;25.54;23.60;99897.06;5557042;32;34302;-88
2022/03/29 08:09:04;;;;;;;33.90;19.15;;;;;;;26.42;22.60;99894.63;5554319;32;33891;-86
2022/03/29 08:12:07;;;;;;;36.47;20.27;;;;;;;28.14;20.14;99892.78;5554972;32;34180;-83
2022/03/29 08:15:11;;;;;;;34.70;20.30;;;;;;;27.56;20.53;99902.94;5554703;32;34209;-84
2022/03/29 08:18:15;;;;;;;38.97;19.77;;;;;;;24.90;23.57;99893.75;5543181;32;34163;-84
2022/03/29 08:24:39;;;;;;;31.55;18.48;;;;;;;26.49;21.92;99879.22;5536484;32;33899;-83
2022/03/29 08:27:43;;;;;;;31.65;19.55;;;;;;;25.33;24.75;99886.91;5546342;32;35235;-82
2022/03/29 08:30:47;;;;;;;35.47;19.15;;;;;;;24.61;24.55;99883.59;5530770;32;34059;-85
2022/03/29 08:33:50;;;;;;;40.50;20.05;;;;;;;24.90;24.50;99880.19;5528936;32;33699;-83
2022/03/29 08:36:53;;;;;;;39.38;21.00;;;;;;;25.11;23.89;99880.50;5535939;32;34523;-82
2022/03/29 08:39:56;;;;;;;37.92;19.75;;;;;;;24.94;24.29;99875.22;5537183;32;33972;-82
2022/03/29 08:43:00;;;;;;;37.03;18.98;;;;;;;24.54;24.35;99867.22;5544121;32;34348;-82
2022/03/29 08:46:03;;;;;;;31.05;18.90;;;;;;;24.58;24.08;99860.41;5552662;32;33968;-82
2022/03/29 08:49:06;;;;;;;35.70;18.80;;;;;;;25.13;24.51;99860.31;5552447;32;33802;-83
2022/03/29 08:52:11;;;;;;;33.92;19.27;;;;;;;24.67;24.37;99863.91;5545781;32;33992;-83
2022/03/29 08:55:16;;;;;;;33.78;19.02;;;;;;;24.35;24.48;99861.25;5540029;32;34592;-83
2022/03/29 08:58:21;;;;;;;31.30;18.85;;;;;;;24.12;24.73;99850.38;5551106;32;34078;-83
2022/03/29 09:01:24;;;;;;;39.13;20.12;;;;;;;23.63;25.37;99857.69;5550849;32;33829;-84
2022/03/29 09:04:29;;;;;;;37.72;18.27;;;;;;;23.28;26.09;99857.94;5532768;32;34002;-83
2022/03/29 09:07:50;;;;;;;41.65;19.92;;;;;;;24.08;25.63;99846.34;5547496;32;34771;-83
2022/03/29 09:10:53;;;;;;;32.03;19.33;;;;;;;23.77;25.49;99845.28;5553990;32;34190;-83
2022/03/29 09:14:04;;;;;;;29.02;17.67;;;;;;;24.40;24.92;99836.34;5552859;32;35212;-83
2022/03/29 09:17:28;;;;;;;42.20;18.10;;;;;;;23.83;24.18;99833.75;5555044;32;34424;-84
2022/03/29 09:20:31;;;;;;;30.75;17.83;;;;;;;24.11;26.03;99820.75;5556535;32;34474;-85
2022/03/29 09:23:34;;;;;;;38.70;18.58;;;;;;;25.09;23.88;99834.56;5547692;32;34487;-88
2022/03/29 09:26:43;;;;;;;27.10;16.55;;;;;;;24.88;23.29;99824.41;5560614;32;33991;-87
2022/03/29 09:30:09;;;;;;;27.25;16.45;;;;;;;25.64;23.38;99823.47;5559904;32;34175;-83
2022/03/29 09:33:22;;;;;;;29.77;16.67;;;;;;;24.71;22.49;99816.44;5561966;32;36420;-83
2022/03/29 09:36:49;;;;;;;31.30;18.00;;;;;;;24.15;23.87;99817.53;5563640;32;33730;-85
2022/03/29 09:39:53;;;;;;;27.62;18.83;;;;;;;24.06;24.25;99805.88;5565712;32;35335;-84
2022/03/29 09:43:05;;;;;;;26.55;17.25;;;;;;;23.88;24.45;99811.53;5565368;32;34459;-84
2022/03/29 09:46:10;;;;;;;33.78;18.40;;;;;;;24.43;23.61;99805.31;5563855;32;35039;-84
2022/03/29 09:49:14;;;;;;;31.92;18.37;;;;;;;24.84;23.19;99804.97;5536755;32;32601;-84
2022/03/29 09:52:20;;;;;;;31.08;18.05;;;;;;;24.17;23.98;99791.09;5536424;32;35248;-83
2022/03/29 09:55:22;;;;;;;31.52;17.37;;;;;;;24.86;23.21;99794.78;5559536;32;34049;-84
2022/03/29 09:58:33;;;;;;;;;;;;;;;25.36;22.85;99790.69;5559819;32;35013;-83
2022/03/29 10:01:47;;;;;;;29.42;17.05;;;;;;;25.28;22.83;99788.91;5547355;32;33253;-83
2022/03/29 10:04:55;;;;;;;33.22;17.80;;;;;;;25.99;21.96;99779.34;5558446;32;34225;-83
2022/03/29 10:11:27;;;;;;;29.25;16.92;;;;;;;26.81;20.42;99767.34;5557654;32;34512;-89
2022/03/29 10:14:32;;;;;;;25.52;15.32;;;;;;;25.79;21.49;99768.28;5558168;32;34985;-89
2022/03/29 10:17:37;;;;;;;30.45;15.80;;;;;;;25.69;21.89;99761.28;5544869;32;34621;-89
2022/03/29 10:20:40;;;;;;;21.25;14.60;;;;;;;24.42;22.20;99758.38;5538690;32;33594;-87
2022/03/29 10:23:46;;;;;;;25.50;14.68;;;;;;;26.17;19.92;99748.19;5542048;32;35118;-87
2022/03/29 10:26:52;;;;;;;25.20;14.48;;;;;;;27.07;17.85;99749.53;5544198;32;34698;-87
2022/03/29 10:29:56;;;;;;;26.67;13.80;;;;;;;27.71;16.53;99748.38;5549619;32;34425;-86
2022/03/29 10:33:14;;;;;;;20.50;12.80;;;;;;;27.52;17.12;99740.97;5554103;32;34913;-87
2022/03/29 10:36:17;;;;;;;22.00;13.88;;;;;;;28.11;16.52;99734.00;5539017;32;34499;-87
2022/03/29 10:39:24;;;;;;;23.80;13.95;;;;;;;26.92;16.82;99723.31;5568960;26;34308;-84
2022/03/29 10:42:32;;;;;;;23.90;13.70;;;;;;;28.03;16.66;99717.84;5541933;32;34289;-87
2022/03/29 10:45:34;;;;;;;24.25;13.15;;;;;;;27.80;17.18;99721.78;5539824;32;33986;-87
2022/03/29 10:49:05;;;;;;;25.27;13.65;;;;;;;27.92;16.91;99711.13;5546840;32;33782;-88
2022/03/29 10:52:09;;;;;;;22.02;14.32;;;;;;;27.74;16.69;99719.91;5556537;32;34723;-87
2022/03/29 10:55:17;;;;;;;19.50;13.18;;;;;;;28.00;16.32;99703.81;5546518;32;35380;-88
2022/03/29 10:58:20;;;;;;;20.85;13.82;;;;;;;28.23;16.09;99698.81;5533668;32;34789;-87
2022/03/29 11:01:23;;;;;;;30.37;14.35;;;;;;;29.38;15.31;99695.84;5537051;32;34038;-86
2022/03/29 11:04:29;;;;;;;23.58;14.00;;;;;;;29.48;15.58;99695.41;5546152;32;35169;-85
2022/03/29 11:07:52;;;;;;;19.98;14.27;;;;;;;29.40;15.23;99680.06;5553807;32;34318;-85
2022/03/29 11:11:00;;;;;;;25.05;13.88;;;;;;;28.22;16.27;99677.22;5557426;32;33053;-85
2022/03/29 11:14:27;;;;;;;34.13;15.48;;;;;;;26.15;18.18;99674.16;5567328;26;33968;-88
2022/03/29 11:17:30;;;;;;;21.02;14.35;;;;;;;25.56;18.53;99653.34;5558551;32;34975;-87
2022/03/29 11:20:35;;;;;;;27.60;14.18;;;;;;;24.47;18.97;99650.25;5556811;32;34184;-88
2022/03/29 11:23:40;;;;;;;25.73;14.63;;;;;;;24.61;19.33;99647.72;5550213;32;34122;-85
2022/03/29 11:26:55;;;;;;;26.77;14.30;;;;;;;24.91;18.70;99645.03;5546489;32;34370;-86
2022/03/29 11:29:58;;;;;;;27.25;14.82;;;;;;;25.82;18.51;99642.94;5539500;32;34458;-86
2022/03/29 11:33:05;;;;;;;26.73;14.57;;;;;;;25.70;17.68;99627.16;5547063;32;34228;-84
2022/03/29 11:36:11;;;;;;;25.02;14.15;;;;;;;25.88;17.86;99636.72;5545554;32;35083;-86
2022/03/29 11:39:22;;;;;;;22.45;13.50;;;;;;;24.75;18.14;99627.91;5547760;32;35349;-87
2022/03/29 11:42:44;;;;;;;28.02;14.48;;;;;;;24.99;18.04;99625.13;5542062;32;34980;-86
2022/03/29 11:45:48;;;;;;;23.15;14.75;;;;;;;25.00;17.87;99618.66;5547502;32;34012;-88
2022/03/29 11:48:52;;;;;;;22.42;13.60;;;;;;;25.35;17.42;99620.72;5539093;32;33964;-87
2022/03/29 11:52:08;;;;;;;26.40;14.90;;;;;;;25.98;16.70;99614.66;5543220;32;33289;-85
2022/03/29 11:55:15;;;;;;;27.65;14.70;;;;;;;24.72;17.62;99605.75;5546625;31;34926;-86
2022/03/29 11:58:21;;;;;;;24.90;13.85;;;;;;;24.97;17.67;99600.03;5558819;31;33856;-87
2022/03/29 12:01:28;;;;;;;24.50;15.70;;;;;;;24.85;18.19;99607.81;5566899;26;35318;-88
2022/03/29 12:04:33;;;;;;;28.05;14.93;;;;;;;24.07;18.13;99593.56;5529307;32;34339;-87
2022/03/29 12:07:42;;;;;;;28.60;14.38;;;;;;;23.25;18.58;99585.03;5543006;32;33955;-87
2022/03/29 12:10:45;;;;;;;22.35;14.73;;;;;;;23.79;18.52;99588.69;5550036;32;34793;-86
2022/03/29 12:14:03;;;;;;;23.20;14.95;;;;;;;24.05;18.47;99581.22;5540619;32;34131;-85
2022/03/29 12:17:08;;;;;;;25.65;14.70;;;;;;;23.89;19.00;99579.50;5539011;32;33963;-88
2022/03/29 12:20:10;;;;;;;23.10;14.15;;;;;;;23.67;18.64;99576.63;5530947;32;34089;-87
2022/03/29 12:23:27;;;;;;;27.75;14.35;;;;;;;24.06;19.09;99575.63;5549095;32;33950;-87
2022/03/29 12:26:32;;;;;;;27.98;15.75;;;;;;;24.31;17.58;99572.69;5535957;32;33967;-86
2022/03/29 12:29:58;;;;;;;23.20;13.88;;;;;;;23.20;18.37;99579.31;5522781;32;34110;-87
2022/03/29 12:33:01;;;;;;;23.55;13.70;;;;;;;22.96;19.09;99566.75;5544094;32;34093;-86
2022/03/29 12:36:06;;;;;;;24.63;13.50;;;;;;;23.58;18.71;99566.91;5539348;32;34011;-86
2022/03/29 12:39:10;;;;;;;31.65;14.77;;;;;;;23.36;19.26;99559.44;5528299;32;34136;-89
2022/03/29 12:42:17;;;;;;;25.05;14.07;;;;;;;23.55;18.54;99560.00;5536318;32;34078;-87
2022/03/29 12:45:21;;;;;;;25.65;13.82;;;;;;;23.75;18.39;99551.34;5552297;32;34727;-87
2022/03/29 12:48:26;;;;;;;25.85;15.30;;;;;;;23.17;19.28;99543.66;5543874;32;34673;-86
2022/03/29 12:51:32;;;;;;;26.60;14.57;;;;;;;23.86;18.60;99542.78;5550915;32;34340;-86
2022/03/29 12:54:40;;;;;;;25.20;13.95;;;;;;;23.73;19.18;99516.34;5548751;32;33813;-87
2022/03/29 12:57:43;;;;;;;34.22;14.95;;;;;;;23.62;18.68;99524.88;5535617;32;33777;-85
2022/03/29 13:00:47;;;;;;;21.33;14.02;;;;;;;23.45;18.39;99532.31;5534809;32;33712;-85
2022/03/29 13:03:49;;;;;;;26.80;14.30;;;;;;;23.53;18.32;99519.56;5529798;32;33972;-85
2022/03/29 13:06:54;;;;;;;23.48;13.55;;;;;;;23.26;18.42;99508.25;5518390;32;33867;-85
2022/03/29 13:10:03;;;;;;;22.58;13.00;;;;;;;23.18;18.93;99507.47;5513231;32;34238;-85
2022/03/29 13:13:28;;;;;;;25.25;13.40;;;;;;;23.36;18.34;99504.47;5520527;32;33839;-85
2022/03/29 13:16:32;;;;;;;19.98;13.10;;;;;;;23.07;18.36;99500.63;5506938;32;34803;-85
2022/03/29 13:19:51;;;;;;;20.05;13.07;;;;;;;23.20;18.22;99494.59;5518286;32;34894;-85
2022/03/29 13:22:54;;;;;;;30.15;12.82;;;;;;;23.29;18.31;99494.34;5542977;32;34252;-86
2022/03/29 13:25:57;;;;;;;32.63;12.05;;;;;;;23.07;18.53;99498.75;5546885;32;33991;-85
2022/03/29 13:29:01;;;;;;;35.60;12.60;;;;;;;22.97;18.86;99490.87;5537653;32;34526;-85
2022/03/29 13:32:09;;;;;;;20.85;12.10;;;;;;;22.34;19.29;99496.25;5534367;32;34881;-86
2022/03/29 13:35:12;;;;;;;21.62;12.52;;;;;;;22.91;19.01;99490.75;5538168;32;33659;-85
2022/03/29 13:38:19;;;;;;;21.55;12.25;;;;;;;22.91;19.22;99488.88;5520137;32;33799;-85
2022/03/29 13:41:30;;;;;;;22.85;13.25;;;;;;;22.41;19.79;99490.97;5531171;32;34384;-85
2022/03/29 13:44:33;;;;;;;27.37;12.70;;;;;;;22.63;19.60;99473.19;5533763;32;34350;-85
2022/03/29 13:47:37;;;;;;;24.52;14.63;;;;;;;22.56;20.01;99478.44;5534532;32;33799;-85
2022/03/29 13:50:42;;;;;;;24.42;13.23;;;;;;;22.50;20.19;99476.41;5531967;32;34119;-84
2022/03/29 13:53:45;;;;;;;23.02;12.52;;;;;;;22.20;20.05;99479.75;5530469;32;33949;-84
2022/03/29 13:56:48;;;;;;;28.15;12.50;;;;;;;22.57;19.77;99466.63;5532167;32;34243;-85
2022/03/29 13:59:58;;;;;;;17.23;12.23;;;;;;;22.28;20.24;99470.75;5531567;32;34736;-85
2022/03/29 14:03:02;;;;;;;21.70;12.23;;;;;;;22.83;19.71;99470.03;5531433;32;34625;-85
2022/03/29 14:06:08;;;;;;;23.25;12.10;;;;;;;22.75;19.06;99454.69;5532183;32;34517;-85
2022/03/29 14:09:11;;;;;;;22.25;12.35;;;;;;;22.12;19.64;99446.53;5532948;32;34408;-85
2022/03/29 14:12:14;;;;;;;20.05;12.52;;;;;;;21.79;20.09;99452.87;5531437;32;34569;-82
2022/03/29 14:15:16;;;;;;;27.33;12.52;;;;;;;21.42;20.63;99455.09;5530705;32;33775;-85
2022/03/29 14:18:22;;;;;;;20.12;11.95;;;;;;;21.49;20.80;99461.50;5531318;32;34573;-85
2022/03/29 14:21:24;;;;;;;19.27;11.90;;;;;;;21.54;20.56;99448.31;5532668;32;33870;-85
2022/03/29 14:24:28;;;;;;;22.00;11.98;;;;;;;21.53;20.65;99451.22;5532142;32;34167;-85
2022/03/29 14:27:32;;;;;;;28.92;12.40;;;;;;;21.33;20.89;99456.12;5536431;32;34137;-86
2022/03/29 14:30:36;;;;;;;22.67;12.10;;;;;;;21.45;20.95;99451.19;5535594;32;34344;-85
2022/03/29 14:33:41;;;;;;;25.00;12.48;;;;;;;21.71;20.97;99442.94;5538988;32;34353;-85
2022/03/29 14:36:44;;;;;;;21.58;12.27;;;;;;;21.84;21.05;99437.00;5540144;32;33819;-85
2022/03/29 14:39:51;;;;;;;16.95;12.18;;;;;;;21.80;21.10;99432.97;5535469;32;34329;-85
2022/03/29 14:42:54;;;;;;;16.65;11.70;;;;;;;21.51;21.47;99432.50;5527024;32;34120;-85
2022/03/29 14:45:57;;;;;;;17.20;11.85;;;;;;;20.78;22.19;99426.91;5538559;32;34876;-85
2022/03/29 14:49:00;;;;;;;21.02;12.45;;;;;;;20.78;22.33;99440.38;5539471;32;34204;-85
2022/03/29 14:52:03;;;;;;;15.95;11.25;;;;;;;20.54;22.64;99428.56;5532916;32;33836;-85
2022/03/29 14:55:08;;;;;;;17.80;12.32;;;;;;;20.97;22.36;99428.47;5532187;32;34024;-85
2022/03/29 14:58:11;;;;;;;19.75;11.43;;;;;;;21.32;22.07;99424.78;5531812;32;34703;-85
2022/03/29 15:01:14;;;;;;;22.13;11.90;;;;;;;21.40;22.05;99422.06;5520779;32;34699;-85
2022/03/29 15:04:17;;;;;;;21.70;11.98;;;;;;;21.06;22.39;99423.91;5532268;32;34410;-91
2022/03/29 15:07:22;;;;;;;19.60;12.37;;;;;;;20.91;22.62;99417.53;5531490;32;34472;-90
2022/03/29 15:10:26;;;;;;;17.85;11.73;;;;;;;20.89;22.72;99417.69;5531398;32;34548;-90
2022/03/29 15:13:29;;;;;;;20.05;12.10;;;;;;;20.79;22.99;99406.19;5531879;32;33846;-86
2022/03/29 15:16:32;;;;;;;19.77;11.52;;;;;;;20.80;23.02;99411.41;5535338;32;34220;-86
2022/03/29 15:19:41;;;;;;;19.90;11.68;;;;;;;20.41;23.45;99404.78;5533093;32;34332;-86
2022/03/29 15:22:44;;;;;;;18.02;11.38;;;;;;;20.18;23.66;99404.53;5533334;32;34454;-86
2022/03/29 15:25:48;;;;;;;21.08;11.68;;;;;;;20.32;23.71;99406.59;5533686;32;34256;-85
2022/03/29 15:28:50;;;;;;;17.80;11.77;;;;;;;20.12;23.73;99392.56;5531029;32;34374;-85
2022/03/29 15:31:54;;;;;;;21.48;11.48;;;;;;;20.11;23.79;99387.34;5530789;32;34006;-85
2022/03/29 15:34:57;;;;;;;18.80;10.90;;;;;;;20.00;23.95;99386.63;5531259;32;34049;-85
2022/03/29 15:38:00;;;;;;;19.87;11.25;;;;;;;20.17;23.80;99387.53;5530288;32;34792;-85
